Pleasant Lake, North Dakota
Current Conditions -  °F | °C
As of 12:55 AM on Friday 28 Nov 2014 (Local Time) from KRUG Reporting Station
Overcast Overcast  
Wind Chill: -9°   Ceiling: 1600
Heat Index:   Visibility: 10mi
Dew Point:   Wind: 12mph
Humidity: 79%   Direction: 130°SE
Pressure: 29.96"   Gusts: NA
Location:  48.2119°N, 99.9965°W
Report Text: KRUG 280655Z AUTO 13010KT 10SM BKN016 OVC038 M14/M17 A2996 RMK AO2
Loading
Personal Weather Stations






























Interactive Weather Map New forecast layout! Learn more

10-Day Weather Forecast

Advertisements
Track Severe Weather on mobile